Princeton's Hourly Summary for Sunday, March 19, 2017
Hour Temp
(f)
RH
(%)
Solar Rad.
(MJ/m2)
Rainfall
(in)
Wind
(mph)
3/19/2017 12:00 AM 65 87 0 0 1.85
3/19/2017 1:00 AM 64 88 0 0 2.57
3/19/2017 2:00 AM 63 89 0 0 1.8
3/19/2017 3:00 AM 62 93 0 0 0.26
3/19/2017 4:00 AM 61 96 0 0 0.46
3/19/2017 5:00 AM 61 96 0 0 2.09
3/19/2017 6:00 AM 61 95 0 0 2.93
3/19/2017 7:00 AM 62 94 0 0 4.08
3/19/2017 8:00 AM 61 95 0.04 0 4.07
3/19/2017 9:00 AM 63 93 0.43 0 3.27
3/19/2017 10:00 AM 66 84 1.12 0 5.01
3/19/2017 11:00 AM 70 71 2.01 0 6.73
3/19/2017 12:00 PM 73 67 2.54 0 7.86
3/19/2017 1:00 PM 73 66 2.87 0 9.57
3/19/2017 2:00 PM 74 60 3 0 11.34
3/19/2017 3:00 PM 77 55 2.9 0 11.54
3/19/2017 4:00 PM 78 52 2.56 0 11.32
3/19/2017 5:00 PM 79 51 1.97 0 11.69
3/19/2017 6:00 PM 79 50 1.14 0 11.72
3/19/2017 7:00 PM 78 52 0.34 0 10.51
3/19/2017 8:00 PM 75 55 0.05 0 9.72
3/19/2017 9:00 PM 73 63 0 0 7.21
3/19/2017 10:00 PM 71 69 0 0 6.32
3/19/2017 11:00 PM 70 70 0 0 6.19
Data Summary 69 74 20.97 0.00 6.25